Winterville, GA (30683)

9:33 PM EST on March 06, 2015 (GMT -0500)
Wyndfield | Change Station
CLOSE
Current Station
Personal Weather Station
Location: Athens-Clarke County, GA
Elevation: 647 ft
Nearby Weather Stations

Elev 647 ft 33.91 °N, 83.30 °W | Updated 1 minute ago

Clear
Clear
38.8 °F
Feels Like 39 °F
N
0.0
Wind Variable Wind from ENE
Gusts 0.0 mph

Today
High -- | Low -- °F
--% Chance of Precip.
Yesterday
High -- | Low -- °F
Precip. -- in
6:55 AM 6:33 PM
Full, 98% visible
Pressure 30.41 in
Visibility 10.0 miles
Clouds Clear
Windchill 39 °F
Dew Point 31 °F
Humidity 73%
Rainfall in
Snow Depth Not available.
UV 0 out of 12
Pollen 7.40 out of 12
Air Quality Not available.
Flu Activity Not available.
METAR KAHN 070151Z AUTO 30004KT 10SM CLR 06/M02 A3039 RMK AO2 SLP298 T00561022

More Conditions Fewer Conditions

Pressure 30.41 in
Visibility 10.0 miles
Clouds Clear
Windchill 39 °F
Dew Point 31 °F
Humidity 73%
Rainfall in
Snow Depth Not available.
UV 0 out of 12
Pollen 7.40 out of 12
Air Quality Not available.
Flu Activity Not available.
METAR KAHN 070151Z AUTO 30004KT 10SM CLR 06/M02 A3039 RMK AO2 SLP298 T00561022

More Conditions Fewer Conditions

10-Day Weather Forecast

Almanac

Astronomy

Mar. 06, 2015 Rise Set
Actual Time
Civil Twilight
Nautical Twilight
Astronomical Twilight
Moon
Length of Visible Light
Length of Day
Tomorrow will be .
, % of the Moon is Illuminated

Today's Extremes

State Highs State Lows

Community

WunderPhotos

Upload Photos

1,803,500 photos uploaded!

WunderBlogs® & News

Nearby

Air Quality

  Air Quality AQ Index Pollutant
Not available.

Snow Depth

Station Depth Elevation

Earthquake Activity

City Distance Mag. Time & Date
Minimum magnitude displayed is 2.5.

Coastal Water Temperatures

Place Temperature

Nearby Weather Stations